Time;durP1;ratioP1;P1;durP2;ratioP2;P2;SDS_P1;SDS_P2;PMS_P1;PMS_P2;Temp;Humidity;BMP_temperature;BMP_pressure;BME280_temperature;BME280_humidity;BME280_pressure;Samples;Min_cycle;Max_cycle;Signal;HPM_P1;HPM_P2
2022/05/11 00:01:38;;;;;;;6.93;4.45;;;18.30;96.40;;;;;;5035032;28;20081;-89
2022/05/11 00:04:09;;;;;;;5.80;4.10;;;18.20;96.50;;;;;;5035582;28;20041;-88
2022/05/11 00:06:38;;;;;;;7.22;4.60;;;18.30;96.70;;;;;;5020201;28;20099;-90
2022/05/11 00:09:08;;;;;;;6.10;4.40;;;18.30;96.50;;;;;;5035311;28;20099;-89
2022/05/11 00:11:37;;;;;;;6.50;4.38;;;18.20;96.50;;;;;;5035389;28;20080;-89
2022/05/11 00:14:05;;;;;;;6.15;4.28;;;18.20;96.50;;;;;;5033368;28;20100;-89
2022/05/11 00:16:34;;;;;;;7.05;4.78;;;18.20;96.70;;;;;;5027363;28;20166;-90
2022/05/11 00:19:02;;;;;;;5.55;4.35;;;18.10;96.80;;;;;;5016198;28;20053;-91
2022/05/11 00:21:31;;;;;;;6.90;4.50;;;18.10;96.90;;;;;;5015791;28;20116;-90
2022/05/11 00:23:58;;;;;;;5.60;4.10;;;18.10;97.00;;;;;;5031743;28;20073;-90
2022/05/11 00:26:25;;;;;;;6.55;4.10;;;18.10;97.40;;;;;;5023439;28;20049;-90
2022/05/11 00:28:53;;;;;;;6.18;4.20;;;17.90;97.70;;;;;;5028957;28;20103;-89
2022/05/11 00:31:20;;;;;;;5.70;4.03;;;17.80;97.90;;;;;;5026078;28;20053;-88
2022/05/11 00:33:47;;;;;;;5.38;3.70;;;17.80;98.00;;;;;;5020152;28;20057;-86
2022/05/11 00:36:15;;;;;;;5.30;3.92;;;17.80;98.10;;;;;;5032631;28;20099;-85
2022/05/11 00:38:45;;;;;;;6.15;4.30;;;17.70;98.40;;;;;;5033627;28;20140;-90
2022/05/11 00:41:12;;;;;;;5.53;3.90;;;17.60;98.60;;;;;;5034340;28;20095;-90
2022/05/11 00:43:42;;;;;;;6.95;4.00;;;17.50;98.70;;;;;;5029471;28;20132;-89
2022/05/11 00:46:17;;;;;;;5.60;4.30;;;17.60;98.90;;;;;;5023682;28;20080;-89
2022/05/11 00:51:44;;;;;;;5.40;4.18;;;17.50;99.40;;;;;;5021018;28;20041;-90
2022/05/11 00:54:13;;;;;;;;;;;17.50;99.50;;;;;;5027105;28;20077;-90
2022/05/11 00:56:48;;;;;;;6.13;4.10;;;17.40;99.30;;;;;;5026763;28;19974;-90
2022/05/11 00:59:21;;;;;;;6.00;4.40;;;17.40;99.70;;;;;;5034390;28;20126;-87
2022/05/11 01:01:49;;;;;;;6.10;4.63;;;17.40;99.50;;;;;;5022325;28;20077;-87
2022/05/11 01:04:20;;;;;;;6.07;4.45;;;17.20;99.60;;;;;;5041406;28;20049;-88
2022/05/11 01:06:48;;;;;;;5.05;4.03;;;17.20;99.90;;;;;;5054545;28;20065;-88
2022/05/11 01:09:17;;;;;;;6.07;4.57;;;17.10;99.90;;;;;;5044596;28;20052;-88
2022/05/11 01:11:51;;;;;;;5.70;4.35;;;17.10;99.90;;;;;;5024576;28;20049;-88
2022/05/11 01:14:23;;;;;;;5.80;4.13;;;17.10;99.90;;;;;;5025212;28;20114;-88
2022/05/11 01:16:51;;;;;;;6.40;4.70;;;17.00;99.90;;;;;;5034493;28;20053;-86
2022/05/11 01:19:28;;;;;;;6.65;4.35;;;16.90;99.90;;;;;;5013341;28;20084;-88
2022/05/11 01:22:03;;;;;;;6.38;4.53;;;17.00;99.90;;;;;;5006501;28;20081;-87
2022/05/11 01:24:36;;;;;;;6.20;4.80;;;16.80;99.90;;;;;;4994700;28;20129;-87
2022/05/11 01:27:30;;;;;;;6.88;4.68;;;16.60;99.90;;;;;;5010046;28;20133;-87
2022/05/11 01:30:01;;;;;;;6.57;4.20;;;16.60;99.90;;;;;;4986722;28;20120;-87
2022/05/11 01:32:30;;;;;;;5.97;4.07;;;16.70;99.90;;;;;;4994264;28;20412;-88
2022/05/11 01:35:23;;;;;;;5.72;4.30;;;16.80;99.90;;;;;;4993907;28;20053;-88
2022/05/11 01:38:04;;;;;;;6.05;4.53;;;16.70;99.90;;;;;;4991358;28;20456;-87
2022/05/11 01:40:33;;;;;;;5.93;4.40;;;16.60;99.90;;;;;;5004616;28;20050;-86
2022/05/11 01:43:00;;;;;;;6.32;4.47;;;16.60;99.90;;;;;;4999487;28;20440;-85
2022/05/11 01:45:27;;;;;;;7.57;4.88;;;16.60;99.90;;;;;;5013071;28;20120;-89
2022/05/11 01:47:56;;;;;;;6.47;4.70;;;16.30;99.90;;;;;;5021346;28;20482;-90
2022/05/11 01:50:24;;;;;;;5.88;4.43;;;16.00;99.90;;;;;;4998101;28;20399;-91
2022/05/11 01:52:51;;;;;;;6.13;4.80;;;16.00;99.90;;;;;;4999010;28;20046;-90
2022/05/11 01:55:18;;;;;;;5.90;4.68;;;16.10;99.90;;;;;;5004206;28;20054;-89
2022/05/11 01:57:47;;;;;;;5.97;4.38;;;16.20;99.90;;;;;;5012632;28;20050;-91
2022/05/11 02:00:15;;;;;;;6.28;4.65;;;16.10;99.90;;;;;;5012514;28;20053;-91
2022/05/11 02:02:42;;;;;;;6.90;5.00;;;16.00;99.90;;;;;;5004868;28;20045;-88
2022/05/11 02:07:55;;;;;;;6.50;4.18;;;16.20;99.90;;;;;;5009158;28;20108;-88
2022/05/11 02:10:26;;;;;;;6.88;4.80;;;16.30;99.90;;;;;;5017577;28;20052;-92
2022/05/11 02:12:57;;;;;;;6.38;4.70;;;16.20;99.90;;;;;;5037802;23;1475541;-89
2022/05/11 02:15:26;;;;;;;6.35;4.65;;;16.10;99.90;;;;;;5025364;28;20115;-88
2022/05/11 02:17:54;;;;;;;7.20;4.75;;;16.00;99.90;;;;;;5033249;28;20145;-89
2022/05/11 02:20:22;;;;;;;6.32;4.40;;;16.00;99.90;;;;;;5032725;28;20057;-88
2022/05/11 02:22:50;;;;;;;6.28;4.72;;;16.00;99.90;;;;;;5033283;28;20498;-88
2022/05/11 02:25:19;;;;;;;5.95;4.50;;;16.10;99.90;;;;;;5030405;28;20060;-89
2022/05/11 02:27:49;;;;;;;6.50;4.75;;;16.10;99.90;;;;;;5021053;28;20152;-90
2022/05/11 02:30:20;;;;;;;6.05;4.40;;;16.10;99.90;;;;;;5030949;28;20061;-86
2022/05/11 02:32:48;;;;;;;5.93;4.50;;;16.00;99.90;;;;;;5013632;28;20042;-86
2022/05/11 02:35:16;;;;;;;5.43;4.18;;;16.00;99.90;;;;;;5034508;28;20085;-87
2022/05/11 02:37:47;;;;;;;7.10;4.55;;;16.00;99.90;;;;;;5017209;28;20050;-85
2022/05/11 02:40:20;;;;;;;6.47;4.70;;;15.90;99.90;;;;;;5037913;28;20053;-86
2022/05/11 02:42:47;;;;;;;6.20;4.35;;;15.80;99.90;;;;;;5029855;28;20050;-90
2022/05/11 02:45:17;;;;;;;6.10;4.53;;;15.60;99.90;;;;;;5035402;28;20053;-89
2022/05/11 02:47:46;;;;;;;7.22;5.10;;;15.70;99.90;;;;;;5038844;28;20244;-87
2022/05/11 02:50:17;;;;;;;6.20;4.55;;;15.70;99.90;;;;;;5043757;28;20103;-88
2022/05/11 02:52:45;;;;;;;6.85;4.57;;;15.80;99.90;;;;;;5022091;28;20140;-90
2022/05/11 02:55:12;;;;;;;6.45;4.68;;;15.70;99.90;;;;;;5023434;28;20080;-90
2022/05/11 02:57:40;;;;;;;6.22;4.70;;;15.70;99.90;;;;;;5043192;28;20049;-89
2022/05/11 03:00:12;;;;;;;6.68;4.40;;;15.60;99.90;;;;;;5043912;28;20049;-88
2022/05/11 03:02:41;;;;;;;6.38;4.28;;;15.60;99.90;;;;;;5024459;28;20499;-88
2022/05/11 03:05:11;;;;;;;5.95;4.75;;;15.60;99.90;;;;;;5029775;28;20045;-91
2022/05/11 03:07:38;;;;;;;6.10;4.47;;;15.70;99.90;;;;;;5036901;28;20399;-90
2022/05/11 03:10:08;;;;;;;6.85;4.80;;;15.60;99.90;;;;;;5028048;28;20053;-91
2022/05/11 03:12:35;;;;;;;6.78;4.40;;;15.70;99.90;;;;;;5029783;28;20053;-89
2022/05/11 03:15:04;;;;;;;6.03;4.72;;;15.80;99.90;;;;;;5036963;28;20046;-89
2022/05/11 03:17:32;;;;;;;6.65;5.10;;;15.80;99.90;;;;;;5036351;28;20507;-90
2022/05/11 03:20:00;;;;;;;6.28;4.68;;;15.80;99.90;;;;;;5020182;28;20107;-88
2022/05/11 03:22:28;;;;;;;5.90;4.57;;;15.80;99.90;;;;;;5032297;28;20082;-90
2022/05/11 03:24:55;;;;;;;6.50;4.75;;;15.80;99.90;;;;;;5023782;28;20152;-86
2022/05/11 03:27:22;;;;;;;6.07;4.68;;;15.80;99.90;;;;;;5035805;28;20080;-88
2022/05/11 03:29:51;;;;;;;7.03;4.80;;;15.90;99.90;;;;;;5018742;28;20136;-89
2022/05/11 03:35:13;;;;;;;5.95;4.90;;;15.90;99.90;;;;;;4973142;28;20128;-90
2022/05/11 03:37:40;;;;;;;6.68;4.70;;;15.80;99.90;;;;;;5016279;28;20132;-88
2022/05/11 03:40:10;;;;;;;5.97;4.43;;;15.80;99.90;;;;;;5025285;28;20141;-89
2022/05/11 03:42:39;;;;;;;6.88;4.57;;;15.80;99.90;;;;;;5013655;28;20447;-90
2022/05/11 03:45:11;;;;;;;5.63;4.43;;;15.70;99.90;;;;;;5016395;28;20141;-92
2022/05/11 03:47:38;;;;;;;6.03;4.60;;;15.80;99.90;;;;;;5028911;28;20156;-91
2022/05/11 03:50:07;;;;;;;7.07;5.32;;;15.50;99.90;;;;;;5026880;28;20136;-89
2022/05/11 03:52:37;;;;;;;7.30;4.93;;;15.50;99.90;;;;;;5028680;28;20041;-85
2022/05/11 03:55:10;;;;;;;6.20;4.80;;;15.60;99.90;;;;;;5034782;28;20144;-84
2022/05/11 03:57:37;;;;;;;6.18;4.70;;;15.60;99.90;;;;;;4984604;28;20091;-86
2022/05/11 04:00:08;;;;;;;6.32;4.38;;;15.60;99.90;;;;;;5026885;28;20510;-85
2022/05/11 04:02:35;;;;;;;5.97;4.43;;;15.60;99.90;;;;;;5026359;28;20148;-86
2022/05/11 04:05:03;;;;;;;6.05;4.38;;;15.60;99.90;;;;;;5035711;28;20079;-89
2022/05/11 04:07:31;;;;;;;6.07;4.32;;;15.50;99.90;;;;;;5039159;28;20426;-92
2022/05/11 04:09:59;;;;;;;6.25;4.13;;;15.50;99.90;;;;;;5021789;28;20064;-91
2022/05/11 04:12:29;;;;;;;7.47;4.40;;;15.40;99.90;;;;;;5055431;28;20045;-89
2022/05/11 04:14:56;;;;;;;5.53;4.18;;;15.50;99.90;;;;;;5035645;28;20029;-91
2022/05/11 04:17:24;;;;;;;6.53;4.47;;;15.40;99.90;;;;;;5045306;28;20100;-89
2022/05/11 04:19:51;;;;;;;6.35;4.72;;;15.40;99.90;;;;;;5050178;28;20052;-91
2022/05/11 04:22:19;;;;;;;6.35;4.70;;;15.40;99.90;;;;;;5024962;28;20073;-89
2022/05/11 04:24:46;;;;;;;6.38;4.57;;;15.30;99.90;;;;;;5034825;28;20054;-87
2022/05/11 04:27:15;;;;;;;5.95;4.40;;;15.20;99.90;;;;;;5015303;28;20060;-88
2022/05/11 04:29:42;;;;;;;6.18;4.38;;;15.30;99.90;;;;;;5020235;28;20084;-88
2022/05/11 04:32:14;;;;;;;6.60;4.65;;;15.30;99.90;;;;;;5034511;28;20147;-86
2022/05/11 04:34:42;;;;;;;5.97;4.57;;;15.20;99.90;;;;;;5015007;28;20046;-85
2022/05/11 04:37:11;;;;;;;5.78;4.57;;;15.10;99.90;;;;;;5019271;28;20049;-86
2022/05/11 04:39:39;;;;;;;5.95;4.40;;;15.30;99.90;;;;;;5027679;28;20411;-88
2022/05/11 04:42:07;;;;;;;5.43;4.07;;;15.30;99.90;;;;;;5029598;28;20388;-87
2022/05/11 04:44:36;;;;;;;6.85;4.60;;;15.30;99.90;;;;;;5026940;28;20132;-85
2022/05/11 04:47:08;;;;;;;5.90;4.50;;;15.00;99.90;;;;;;5031407;28;20128;-85
2022/05/11 04:49:36;;;;;;;6.82;4.60;;;15.00;99.90;;;;;;5033187;28;20045;-84
2022/05/11 04:52:08;;;;;;;6.13;4.60;;;14.90;99.90;;;;;;5015938;28;20077;-89
2022/05/11 04:54:37;;;;;;;7.03;4.47;;;15.00;99.90;;;;;;5023218;28;20041;-87
2022/05/11 04:57:06;;;;;;;8.20;4.97;;;15.00;99.90;;;;;;5014574;28;20060;-86
2022/05/11 04:59:35;;;;;;;6.82;5.10;;;15.00;99.90;;;;;;5031148;28;20144;-86
2022/05/11 05:02:04;;;;;;;7.05;4.93;;;15.00;99.90;;;;;;5032668;28;20050;-85
2022/05/11 05:04:34;;;;;;;6.40;4.80;;;15.10;99.90;;;;;;5006230;28;20121;-87
2022/05/11 05:07:01;;;;;;;7.32;4.85;;;15.10;99.90;;;;;;5015464;28;20068;-85
2022/05/11 05:09:28;;;;;;;6.50;4.75;;;15.20;99.90;;;;;;5024481;28;20073;-90
2022/05/11 05:11:55;;;;;;;6.50;4.55;;;15.20;99.90;;;;;;5012311;28;20551;-87
2022/05/11 05:14:23;;;;;;;5.90;4.38;;;15.20;99.90;;;;;;5029803;28;20136;-86
2022/05/11 05:16:52;;;;;;;6.47;4.80;;;15.20;99.90;;;;;;5015211;28;20080;-88
2022/05/11 05:19:20;;;;;;;7.63;5.07;;;15.20;99.90;;;;;;5033992;28;20482;-90
2022/05/11 05:21:48;;;;;;;6.93;5.00;;;15.10;99.90;;;;;;5036145;28;20083;-89
2022/05/11 05:24:15;;;;;;;7.03;4.95;;;15.30;99.90;;;;;;5029465;28;20038;-80
2022/05/11 05:26:42;;;;;;;7.07;5.35;;;15.20;99.90;;;;;;5028919;28;20542;-85
2022/05/11 05:31:56;;;;;;;7.07;5.13;;;15.30;99.90;;;;;;5029398;28;20545;-82
2022/05/11 05:34:23;;;;;;;7.13;5.20;;;15.30;99.90;;;;;;5026680;28;20045;-83
2022/05/11 05:36:50;;;;;;;7.43;5.07;;;15.30;99.90;;;;;;5031066;28;20133;-80
2022/05/11 05:39:17;;;;;;;7.35;5.65;;;15.30;99.90;;;;;;5012735;28;20136;-83
2022/05/11 05:41:44;;;;;;;6.60;5.20;;;15.30;99.90;;;;;;5027574;28;20092;-83
2022/05/11 05:44:12;;;;;;;7.10;5.22;;;15.30;99.90;;;;;;5027241;28;20140;-81
2022/05/11 05:46:39;;;;;;;7.30;5.20;;;15.40;99.90;;;;;;5016943;28;20085;-82
2022/05/11 05:49:08;;;;;;;7.05;4.75;;;15.50;99.90;;;;;;5018002;28;20103;-83
2022/05/11 05:51:39;;;;;;;6.07;4.45;;;15.50;99.90;;;;;;5033229;28;20081;-83
2022/05/11 05:54:06;;;;;;;7.68;5.10;;;15.60;99.90;;;;;;5033296;28;20049;-79
2022/05/11 05:56:33;;;;;;;5.97;4.35;;;15.80;99.90;;;;;;5032670;28;20140;-78
2022/05/11 05:59:09;;;;;;;6.55;4.72;;;15.80;99.90;;;;;;5028599;28;20541;-80
2022/05/11 06:01:36;;;;;;;6.32;4.97;;;15.80;99.90;;;;;;5032586;28;20136;-78
2022/05/11 06:04:05;;;;;;;6.07;4.65;;;15.90;99.90;;;;;;5032443;28;20073;-79
2022/05/11 06:06:33;;;;;;;8.00;5.38;;;15.90;99.90;;;;;;5032279;28;20045;-80
2022/05/11 06:09:00;;;;;;;7.60;5.47;;;15.90;99.90;;;;;;5031308;28;20473;-82
2022/05/11 06:11:27;;;;;;;9.15;5.57;;;16.10;99.90;;;;;;5029787;28;20474;-80
2022/05/11 06:13:55;;;;;;;7.40;5.05;;;16.10;99.90;;;;;;5030962;28;20224;-81
2022/05/11 06:16:22;;;;;;;8.95;4.80;;;16.20;99.90;;;;;;5031539;28;20099;-80
2022/05/11 06:18:49;;;;;;;7.38;5.00;;;16.20;99.90;;;;;;5030373;28;20137;-78
2022/05/11 06:21:17;;;;;;;8.27;5.10;;;16.30;99.90;;;;;;5024311;28;20096;-81
2022/05/11 06:23:45;;;;;;;8.45;4.75;;;16.30;99.90;;;;;;5029879;28;20495;-81
2022/05/11 06:26:13;;;;;;;7.07;4.90;;;16.50;99.90;;;;;;5021491;28;20137;-80
2022/05/11 06:28:42;;;;;;;6.38;4.75;;;16.60;99.90;;;;;;5029131;28;20077;-81
2022/05/11 06:31:10;;;;;;;6.47;5.13;;;16.70;99.90;;;;;;5036559;28;20125;-79
2022/05/11 06:33:38;;;;;;;6.93;5.30;;;16.80;99.90;;;;;;5032819;28;20471;-80
2022/05/11 06:36:07;;;;;;;8.63;5.75;;;16.90;99.90;;;;;;5023483;28;20073;-82
2022/05/11 06:38:36;;;;;;;7.32;5.25;;;17.00;99.90;;;;;;5033963;28;20372;-80
2022/05/11 06:41:11;;;;;;;8.10;5.07;;;17.20;99.90;;;;;;5032339;28;20091;-81
2022/05/11 06:43:38;;;;;;;7.53;5.05;;;17.30;99.90;;;;;;5032260;28;20491;-81
2022/05/11 06:46:05;;;;;;;5.93;4.68;;;17.30;99.90;;;;;;5033985;28;20089;-79
2022/05/11 06:48:32;;;;;;;6.72;4.57;;;17.40;99.90;;;;;;5032937;28;20054;-79
2022/05/11 06:50:59;;;;;;;6.22;4.95;;;17.50;99.90;;;;;;5025351;28;20057;-79
2022/05/11 06:53:27;;;;;;;8.13;5.03;;;17.60;99.90;;;;;;5033154;28;20721;-81
2022/05/11 07:01:25;;;;;;;9.30;5.78;;;17.80;99.90;;;;;;5033805;28;20048;-80
2022/05/11 07:03:52;;;;;;;9.15;5.88;;;17.90;99.90;;;;;;5035509;28;20128;-80
2022/05/11 07:06:19;;;;;;;7.78;5.13;;;17.90;99.90;;;;;;5034408;28;20077;-79
2022/05/11 07:08:46;;;;;;;7.57;5.65;;;17.90;99.90;;;;;;5030745;28;20081;-79
2022/05/11 07:14:11;;;;;;;9.18;5.68;;;18.00;99.90;;;;;;4948600;28;20536;-82
2022/05/11 07:16:43;;;;;;;6.45;5.15;;;18.20;99.90;;;;;;5002140;28;20091;-90
2022/05/11 07:19:12;;;;;;;6.65;5.10;;;18.20;99.90;;;;;;5034498;28;20084;-89
2022/05/11 07:21:40;;;;;;;6.93;4.53;;;18.30;99.90;;;;;;5035583;28;20042;-88
2022/05/11 07:24:07;;;;;;;6.65;5.22;;;18.30;99.90;;;;;;5034349;28;20061;-89
2022/05/11 07:26:36;;;;;;;5.60;4.28;;;18.40;99.90;;;;;;5018693;28;20565;-85
2022/05/11 07:29:06;;;;;;;7.53;4.80;;;18.70;99.90;;;;;;5021080;28;20139;-85
2022/05/11 07:31:37;;;;;;;6.25;4.82;;;18.80;99.90;;;;;;5028009;28;20625;-84
2022/05/11 07:34:08;;;;;;;6.10;4.13;;;18.90;99.90;;;;;;5032671;28;20056;-85
2022/05/11 07:36:35;;;;;;;7.00;4.70;;;19.00;99.90;;;;;;5032213;28;20065;-85
2022/05/11 07:39:04;;;;;;;5.60;4.35;;;19.10;99.90;;;;;;5033127;28;20558;-84
2022/05/11 07:41:31;;;;;;;5.05;3.97;;;19.20;99.90;;;;;;5030456;28;20061;-88
2022/05/11 07:44:02;;;;;;;7.90;5.00;;;19.30;99.90;;;;;;5033416;28;20085;-85
2022/05/11 07:46:34;;;;;;;6.65;4.20;;;19.60;98.60;;;;;;5016074;28;20085;-87
2022/05/11 07:49:06;;;;;;;5.40;3.75;;;19.70;98.20;;;;;;5030144;28;20475;-83
2022/05/11 07:51:36;;;;;;;6.47;4.00;;;19.70;98.90;;;;;;5031383;28;20155;-88
2022/05/11 07:54:06;;;;;;;5.63;4.07;;;19.90;97.60;;;;;;5016041;28;20053;-84
2022/05/11 08:02:11;;;;;;;6.82;3.90;;;20.20;95.80;;;;;;5023074;28;20057;-87
2022/05/11 08:04:41;;;;;;;6.07;3.90;;;20.20;95.90;;;;;;5014676;28;20075;-84
2022/05/11 08:07:08;;;;;;;7.32;4.03;;;20.30;96.30;;;;;;5028797;28;20056;-87
2022/05/11 08:09:36;;;;;;;6.82;3.67;;;20.40;95.90;;;;;;5032531;28;20499;-88
2022/05/11 08:12:04;;;;;;;8.15;3.85;;;20.40;95.90;;;;;;5025763;28;20084;-86
2022/05/11 08:14:31;;;;;;;6.78;4.13;;;20.60;94.90;;;;;;5034456;28;20495;-84
2022/05/11 08:16:59;;;;;;;7.50;3.65;;;20.90;94.90;;;;;;5034404;28;20045;-84
2022/05/11 08:19:28;;;;;;;5.40;3.80;;;20.90;94.00;;;;;;5031359;28;20061;-82
2022/05/11 08:21:57;;;;;;;5.40;3.53;;;20.90;94.00;;;;;;5033123;28;20051;-79
2022/05/11 08:24:26;;;;;;;6.72;3.40;;;21.00;93.90;;;;;;5033115;28;20057;-83
2022/05/11 08:26:53;;;;;;;6.95;3.58;;;21.00;94.10;;;;;;5031174;28;20041;-83
2022/05/11 08:34:53;;;;;;;5.47;3.72;;;21.30;94.10;;;;;;5022168;28;20100;-85
2022/05/11 08:37:21;;;;;;;7.57;3.60;;;21.40;94.00;;;;;;5030729;28;20049;-86
2022/05/11 08:39:50;;;;;;;4.88;3.08;;;21.50;93.00;;;;;;5034506;28;20088;-82
2022/05/11 08:42:17;;;;;;;5.65;3.40;;;21.60;92.80;;;;;;5033189;28;20505;-81
2022/05/11 08:44:49;;;;;;;5.93;3.47;;;21.70;92.20;;;;;;5032245;28;20140;-82
2022/05/11 08:47:33;;;;;;;7.13;3.75;;;21.80;92.60;;;;;;5034213;28;20055;-81
2022/05/11 08:50:09;;;;;;;5.72;3.50;;;21.90;92.10;;;;;;5035992;28;20049;-88
2022/05/11 08:52:50;;;;;;;5.43;3.50;;;22.00;91.00;;;;;;5010957;28;20049;-86
2022/05/11 08:55:33;;;;;;;5.25;3.63;;;22.00;92.30;;;;;;5034950;28;20045;-86
2022/05/11 08:58:06;;;;;;;5.27;3.60;;;22.20;90.70;;;;;;5035382;28;20138;-89
2022/05/11 09:00:39;;;;;;;4.95;3.40;;;22.10;90.40;;;;;;5022064;28;20439;-89
2022/05/11 09:03:15;;;;;;;6.70;3.80;;;22.30;89.70;;;;;;5037961;28;20049;-88
2022/05/11 09:05:42;;;;;;;9.07;3.55;;;22.40;88.10;;;;;;5021940;28;20454;-89
2022/05/11 09:08:12;;;;;;;6.20;3.45;;;22.40;90.00;;;;;;5017986;28;20124;-87
2022/05/11 09:10:41;;;;;;;4.63;3.25;;;22.50;90.90;;;;;;5036218;28;20056;-87
2022/05/11 09:13:11;;;;;;;7.10;3.65;;;22.60;88.60;;;;;;5035422;28;20089;-85
2022/05/11 09:15:56;;;;;;;5.10;3.20;;;22.60;86.50;;;;;;5035462;28;20084;-86
2022/05/11 09:18:39;;;;;;;10.60;3.60;;;22.70;88.50;;;;;;5034504;28;20056;-87
2022/05/11 09:21:24;;;;;;;4.75;3.45;;;22.70;86.60;;;;;;5034066;28;20055;-87
2022/05/11 09:24:08;;;;;;;8.52;3.50;;;22.70;85.40;;;;;;5034268;28;20493;-87
2022/05/11 09:26:38;;;;;;;5.32;3.20;;;22.80;85.30;;;;;;5034136;28;20056;-88
2022/05/11 09:29:22;;;;;;;6.60;3.50;;;23.00;83.90;;;;;;5034134;28;20103;-88
2022/05/11 09:31:53;;;;;;;8.15;3.50;;;22.90;82.50;;;;;;5034471;28;20133;-87
2022/05/11 09:34:31;;;;;;;6.93;3.80;;;23.00;81.30;;;;;;5034041;28;20140;-88
2022/05/11 09:37:02;;;;;;;7.05;4.30;;;23.10;81.40;;;;;;5034136;28;20054;-87
2022/05/11 09:39:33;;;;;;;6.30;3.85;;;23.10;79.80;;;;;;5033994;28;20081;-88
2022/05/11 09:42:15;;;;;;;5.63;3.40;;;23.20;80.40;;;;;;5034373;28;20083;-87
2022/05/11 09:44:45;;;;;;;5.78;3.33;;;23.40;79.90;;;;;;5034108;28;20487;-88
2022/05/11 09:47:30;;;;;;;6.43;3.40;;;23.50;78.20;;;;;;5016332;28;20136;-89
2022/05/11 09:50:19;;;;;;;4.80;3.10;;;23.50;77.70;;;;;;5032936;28;20084;-89
2022/05/11 09:52:48;;;;;;;5.88;3.30;;;23.60;78.00;;;;;;5034070;28;20128;-88
2022/05/11 09:55:21;;;;;;;6.95;3.50;;;23.70;77.40;;;;;;5033999;28;20380;-88
2022/05/11 09:57:58;;;;;;;5.50;3.30;;;23.60;76.40;;;;;;5033903;28;20045;-89
2022/05/11 10:00:33;;;;;;;5.07;3.38;;;23.60;76.80;;;;;;5016024;28;20042;-87
2022/05/11 10:03:03;;;;;;;4.88;3.22;;;23.80;75.40;;;;;;5037421;28;20558;-85
2022/05/11 10:05:39;;;;;;;5.65;3.63;;;23.80;77.20;;;;;;5018007;28;20107;-89
2022/05/11 10:08:18;;;;;;;4.55;3.65;;;24.00;76.20;;;;;;5017674;28;20057;-87
2022/05/11 10:10:54;;;;;;;4.78;3.00;;;23.90;75.70;;;;;;5000388;28;20046;-88
2022/05/11 10:13:29;;;;;;;4.65;3.40;;;24.00;76.40;;;;;;5017877;28;20112;-88
2022/05/11 10:21:54;;;;;;;4.45;3.35;;;24.00;74.90;;;;;;4976849;28;20611;-85
2022/05/11 10:24:35;;;;;;;6.53;3.42;;;24.10;73.20;;;;;;4976408;28;20068;-89
2022/05/11 10:27:12;;;;;;;4.35;3.15;;;24.30;71.90;;;;;;5000392;28;20050;-87
2022/05/11 10:29:59;;;;;;;5.53;3.10;;;24.40;72.00;;;;;;5017670;28;20472;-89
2022/05/11 10:32:42;;;;;;;4.65;3.13;;;24.30;71.00;;;;;;5017845;28;20069;-87
2022/05/11 10:35:15;;;;;;;5.20;3.30;;;24.40;70.70;;;;;;5017722;28;20060;-88
2022/05/11 10:38:09;;;;;;;5.18;3.20;;;24.40;70.40;;;;;;5026125;28;20529;-87
2022/05/11 10:40:48;;;;;;;5.32;3.10;;;24.40;70.70;;;;;;5027177;28;20510;-86
2022/05/11 10:43:32;;;;;;;4.32;3.00;;;24.50;70.50;;;;;;5023732;28;20050;-88
2022/05/11 10:46:07;;;;;;;5.55;3.60;;;24.60;70.30;;;;;;4983364;28;20056;-86
2022/05/11 10:49:05;;;;;;;4.55;2.78;;;24.70;69.20;;;;;;5016669;28;20567;-86
2022/05/11 10:51:45;;;;;;;5.50;3.38;;;24.80;69.10;;;;;;5000680;28;20133;-88
2022/05/11 10:54:22;;;;;;;6.05;3.33;;;24.80;68.80;;;;;;5017041;28;20077;-87
2022/05/11 10:57:03;;;;;;;4.88;3.45;;;24.70;67.80;;;;;;4999706;28;20164;-87
2022/05/11 11:00:14;;;;;;;6.18;3.30;;;24.80;69.80;;;;;;5017728;28;20050;-85
2022/05/11 11:03:26;;;;;;;4.35;3.03;;;24.90;68.80;;;;;;4971497;28;20053;-87
2022/05/11 11:09:05;;;;;;;5.25;3.03;;;25.10;67.30;;;;;;5016485;28;20057;-88
2022/05/11 11:11:39;;;;;;;5.50;3.58;;;25.10;68.10;;;;;;5016562;28;20061;-88
2022/05/11 11:14:10;;;;;;;6.37;3.57;;;25.00;66.40;;;;;;5015929;28;20104;-87
2022/05/11 11:16:41;;;;;;;4.90;3.22;;;25.00;67.20;;;;;;5016622;28;20297;-87
2022/05/11 11:19:09;;;;;;;8.52;3.70;;;24.90;67.40;;;;;;5016366;28;20137;-86
2022/05/11 11:21:41;;;;;;;6.70;3.22;;;25.00;68.40;;;;;;4998879;28;20103;-86
2022/05/11 11:24:22;;;;;;;4.70;3.13;;;25.10;67.90;;;;;;5016594;28;20129;-87
2022/05/11 11:26:57;;;;;;;5.15;3.53;;;25.10;68.30;;;;;;4999227;28;20620;-87
2022/05/11 11:29:35;;;;;;;5.18;2.95;;;25.20;68.70;;;;;;4999017;28;20096;-87
2022/05/11 11:32:19;;;;;;;4.13;3.15;;;25.30;66.30;;;;;;5016096;28;20049;-87
2022/05/11 11:34:50;;;;;;;7.47;3.60;;;25.20;65.50;;;;;;5016260;28;20494;-87
2022/05/11 11:37:45;;;;;;;5.68;3.20;;;25.30;67.00;;;;;;5016348;28;20049;-86
2022/05/11 11:40:37;;;;;;;13.80;5.57;;;25.40;67.80;;;;;;5015797;28;20077;-86
2022/05/11 11:43:44;;;;;;;4.40;3.10;;;25.60;65.20;;;;;;5010932;28;20054;-87
2022/05/11 11:46:28;;;;;;;5.05;3.05;;;25.70;64.40;;;;;;5003738;28;20050;-88
2022/05/11 11:49:08;;;;;;;6.65;3.10;;;25.80;65.00;;;;;;5015740;28;20054;-87
2022/05/11 11:51:58;;;;;;;6.13;3.45;;;25.70;63.90;;;;;;4998703;28;20050;-87
2022/05/11 11:54:34;;;;;;;9.38;3.83;;;25.60;64.30;;;;;;5014616;28;20045;-88
2022/05/11 11:57:02;;;;;;;5.40;3.40;;;25.50;63.90;;;;;;4998953;28;20054;-87
2022/05/11 11:59:40;;;;;;;8.70;3.35;;;25.70;64.70;;;;;;5016590;28;20061;-87
2022/05/11 12:02:28;;;;;;;4.60;3.33;;;25.80;64.60;;;;;;5015889;28;20045;-86
2022/05/11 12:05:10;;;;;;;5.93;3.38;;;25.90;65.00;;;;;;5029017;28;20053;-87
2022/05/11 12:16:11;;;;;;;5.82;3.70;;;26.40;62.30;;;;;;5035470;28;20052;-88
2022/05/11 12:18:44;;;;;;;6.45;3.33;;;26.50;60.60;;;;;;5033606;28;20049;-79
2022/05/11 12:21:30;;;;;;;4.63;2.88;;;26.50;61.30;;;;;;5033285;28;20136;-84
2022/05/11 12:24:20;;;;;;;;;;;;;;;;;;;;;
2022/05/11 12:26:57;;;;;;;4.78;3.33;;;26.50;60.10;;;;;;5027131;28;20394;-79
2022/05/11 12:32:23;;;;;;;5.78;3.13;;;26.60;61.20;;;;;;5037600;28;20053;-87
2022/05/11 12:34:51;;;;;;;4.82;3.08;;;26.90;60.90;;;;;;5035488;28;20072;-84
2022/05/11 12:37:29;;;;;;;5.85;3.17;;;26.90;58.60;;;;;;5036502;28;20092;-84
2022/05/11 12:40:38;;;;;;;;;;;;;;;;;;;;;
2022/05/11 12:43:18;;;;;;;4.03;2.53;;;26.90;59.00;;;;;;4999417;28;20136;-82
2022/05/11 12:45:53;;;;;;;4.40;2.80;;;26.90;57.10;;;;;;5046792;28;20049;-90
2022/05/11 12:48:26;;;;;;;4.13;2.90;;;26.80;57.20;;;;;;5069196;28;20075;-91
2022/05/11 12:51:00;;;;;;;4.50;3.08;;;27.20;58.80;;;;;;5043839;28;20136;-91
2022/05/11 12:53:32;;;;;;;4.50;2.90;;;27.40;57.80;;;;;;5039674;28;20045;-91
2022/05/11 12:56:16;;;;;;;4.78;2.97;;;27.60;55.70;;;;;;5040020;28;20049;-92
2022/05/11 12:58:48;;;;;;;4.22;3.00;;;27.60;55.50;;;;;;5038283;28;20045;-90
2022/05/11 13:01:21;;;;;;;6.93;3.10;;;27.50;56.50;;;;;;5037463;28;20056;-89
2022/05/11 13:03:54;;;;;;;6.00;3.15;;;27.60;56.50;;;;;;5037448;28;20487;-92
2022/05/11 13:06:31;;;;;;;4.30;2.92;;;27.80;55.30;;;;;;5017611;28;20103;-91
2022/05/11 13:09:05;;;;;;;4.55;2.80;;;27.90;56.20;;;;;;5034653;28;20045;-91
2022/05/11 13:11:35;;;;;;;4.90;2.90;;;28.10;54.90;;;;;;5034214;28;20080;-89
2022/05/11 13:14:02;;;;;;;5.88;2.90;;;28.40;54.70;;;;;;5034444;28;20049;-90
2022/05/11 13:16:34;;;;;;;6.43;2.72;;;28.50;54.20;;;;;;5035618;28;20049;-89
2022/05/11 13:19:22;;;;;;;6.20;3.20;;;28.60;55.00;;;;;;5016424;28;20064;-88
2022/05/11 13:21:50;;;;;;;5.05;2.90;;;28.70;52.80;;;;;;5029390;28;20068;-84
2022/05/11 13:24:39;;;;;;;4.95;3.13;;;28.40;53.00;;;;;;5012881;28;20053;-85
2022/05/11 13:27:36;;;;;;;5.50;3.05;;;28.50;53.00;;;;;;5012955;28;20050;-85
2022/05/11 13:30:22;;;;;;;4.90;2.90;;;28.70;53.10;;;;;;5023695;28;20053;-83
2022/05/11 13:32:51;;;;;;;6.00;2.90;;;28.80;53.30;;;;;;5031460;28;20130;-86
2022/05/11 13:35:30;;;;;;;4.70;2.60;;;28.40;53.50;;;;;;5032630;28;20144;-85
2022/05/11 13:38:16;;;;;;;3.83;2.45;;;28.60;54.80;;;;;;5032903;28;20059;-86
2022/05/11 13:41:00;;;;;;;4.03;2.70;;;28.70;52.70;;;;;;4999226;28;20115;-85
2022/05/11 13:43:31;;;;;;;5.07;2.90;;;28.70;51.80;;;;;;5032076;28;20072;-87
2022/05/11 13:46:02;;;;;;;3.72;2.55;;;28.60;52.60;;;;;;5032421;28;20045;-86
2022/05/11 13:48:33;;;;;;;6.45;2.80;;;28.70;53.30;;;;;;5025006;28;20511;-87
2022/05/11 13:51:19;;;;;;;4.80;2.72;;;29.20;52.10;;;;;;5013062;28;20232;-85
2022/05/11 13:53:50;;;;;;;4.10;2.63;;;29.20;52.30;;;;;;5013155;28;20530;-85
2022/05/11 13:56:26;;;;;;;6.00;3.15;;;28.90;52.30;;;;;;5013319;28;20054;-84
2022/05/11 13:59:16;;;;;;;4.85;2.70;;;29.00;51.90;;;;;;5026915;28;20095;-83
2022/05/11 14:01:47;;;;;;;4.22;2.72;;;29.40;51.80;;;;;;5032283;28;20049;-86
2022/05/11 14:04:19;;;;;;;4.40;2.83;;;29.80;50.70;;;;;;5025042;28;20673;-85
2022/05/11 14:07:07;;;;;;;5.45;2.60;;;29.90;50.20;;;;;;5014528;28;20124;-85
2022/05/11 14:09:37;;;;;;;4.47;2.50;;;30.30;50.10;;;;;;5020821;28;20119;-86